Terminal Aerodrome Forecast
Issued by NWS Pittsburgh, PA

Home | Current Version | Previous Version | Text Only | Print | Product List | Glossary On
Versions: 1 2 3 4 5 6 7 8 9 10 11 12 13 14 15 16 17 18 19 20 21 22 23 24 25 26 27 28
000
FTUS41 KPBZ 040308 AAC
TAFPIT
TAF AMD
KPIT 040308Z 0403/0506 03005KT 4SM -SHRA BR SCT007 OVC015
      TEMPO 0403/0407 BKN007
     FM041000 VRB05KT 6SM -SHRA BR OVC010
     FM041500 32008KT P6SM BKN020
     FM041700 33008KT P6SM SCT025=

USA.gov is the U.S. government's official web portal to all federal, state and local government web resources and services.